Time;durP1;ratioP1;P1;durP2;ratioP2;P2;SDS_P1;SDS_P2;PMS_P1;PMS_P2;Temp;Humidity;BMP_temperature;BMP_pressure;BME280_temperature;BME280_humidity;BME280_pressure;Samples;Min_cycle;Max_cycle;Signal;HPM_P1;HPM_P2
2023/05/17 00:00:22;;;;;;;19.90;6.63;;;9.50;99.90;;;;;;7373098;19;20046;-67
2023/05/17 00:02:48;;;;;;;24.35;7.10;;;9.50;99.90;;;;;;7371678;19;20510;-59
2023/05/17 00:05:15;;;;;;;23.42;6.40;;;9.50;99.90;;;;;;7374935;19;20422;-60
2023/05/17 00:07:42;;;;;;;21.23;7.15;;;9.50;99.90;;;;;;7372409;19;20128;-60
2023/05/17 00:10:08;;;;;;;19.60;7.35;;;9.50;99.90;;;;;;7375885;19;20501;-60
2023/05/17 00:12:38;;;;;;;17.88;6.78;;;9.50;99.90;;;;;;7369660;19;20456;-61
2023/05/17 00:15:05;;;;;;;18.58;6.45;;;9.50;99.90;;;;;;7372819;19;20025;-67
2023/05/17 00:17:31;;;;;;;15.57;6.13;;;9.50;99.90;;;;;;7361431;19;20366;-67
2023/05/17 00:19:57;;;;;;;22.85;5.45;;;9.50;99.90;;;;;;7373969;19;20023;-67
2023/05/17 00:22:23;;;;;;;19.52;5.50;;;9.40;99.90;;;;;;7369679;19;20018;-60
2023/05/17 00:24:49;;;;;;;19.25;6.00;;;9.40;99.90;;;;;;7372902;19;20018;-68
2023/05/17 00:27:18;;;;;;;18.60;4.97;;;9.30;99.90;;;;;;7372965;19;20030;-60
2023/05/17 00:29:44;;;;;;;17.02;4.78;;;9.20;99.90;;;;;;7371632;19;20465;-60
2023/05/17 00:32:11;;;;;;;18.48;4.40;;;9.20;99.90;;;;;;7372187;19;20042;-59
2023/05/17 00:34:37;;;;;;;23.50;5.57;;;9.10;99.90;;;;;;7367851;19;20026;-60
2023/05/17 00:37:04;;;;;;;20.92;4.45;;;9.10;99.90;;;;;;7373993;19;20631;-60
2023/05/17 00:39:30;;;;;;;17.20;3.95;;;9.00;99.90;;;;;;7371023;19;20034;-66
2023/05/17 00:41:58;;;;;;;22.30;4.43;;;8.90;99.90;;;;;;7373491;19;20018;-66
2023/05/17 00:44:25;;;;;;;16.48;4.28;;;8.80;99.90;;;;;;7370961;19;20030;-66
2023/05/17 00:46:51;;;;;;;17.92;4.35;;;8.80;99.90;;;;;;7370410;19;20070;-60
2023/05/17 00:49:18;;;;;;;15.18;4.10;;;8.70;99.90;;;;;;7372984;19;20398;-66
2023/05/17 00:51:47;;;;;;;19.83;4.65;;;8.70;99.90;;;;;;7369558;19;20019;-67
2023/05/17 00:54:15;;;;;;;20.05;4.47;;;8.60;99.90;;;;;;7371602;19;20018;-67
2023/05/17 00:56:41;;;;;;;14.35;4.07;;;8.60;99.90;;;;;;7371450;19;20035;-59
2023/05/17 00:59:08;;;;;;;20.77;5.28;;;8.50;99.90;;;;;;7373180;19;20037;-60
2023/05/17 01:01:36;;;;;;;22.92;5.60;;;8.50;99.90;;;;;;7369703;19;20019;-66
2023/05/17 01:04:03;;;;;;;19.35;4.28;;;8.40;99.90;;;;;;7369931;19;20035;-67
2023/05/17 01:06:30;;;;;;;20.92;4.40;;;8.40;99.90;;;;;;7371763;19;20082;-59
2023/05/17 01:08:56;;;;;;;20.73;4.53;;;8.30;99.90;;;;;;7374309;19;20374;-60
2023/05/17 01:11:55;;;;;;;21.60;4.43;;;8.20;99.90;;;;;;7370190;19;20521;-59
2023/05/17 01:15:04;;;;;;;19.65;3.88;;;8.20;99.90;;;;;;7366949;19;20086;-68
2023/05/17 01:18:07;;;;;;;23.33;4.57;;;8.20;99.90;;;;;;7363988;19;20031;-67
2023/05/17 01:20:40;;;;;;;18.05;4.10;;;8.20;99.90;;;;;;7369645;19;20098;-60
2023/05/17 01:23:43;;;;;;;19.42;4.60;;;8.20;99.90;;;;;;7372415;19;20021;-60
2023/05/17 01:26:21;;;;;;;25.67;4.45;;;8.20;99.90;;;;;;7369868;19;20022;-65
2023/05/17 01:28:52;;;;;;;19.00;4.03;;;8.10;99.90;;;;;;7367017;19;20622;-66
2023/05/17 01:31:19;;;;;;;20.80;4.78;;;8.10;99.90;;;;;;7371818;19;20018;-66
2023/05/17 01:33:48;;;;;;;19.73;4.90;;;8.10;99.90;;;;;;7367565;19;20014;-66
2023/05/17 01:36:15;;;;;;;14.57;4.03;;;8.10;99.90;;;;;;7372382;19;20553;-66
2023/05/17 01:38:41;;;;;;;19.50;5.05;;;8.10;99.90;;;;;;7365641;19;20499;-66
2023/05/17 01:41:32;;;;;;;20.50;5.05;;;8.00;99.90;;;;;;7372157;19;20520;-59
2023/05/17 01:44:04;;;;;;;23.98;4.75;;;8.10;99.90;;;;;;7371170;19;20022;-59
2023/05/17 01:46:42;;;;;;;19.58;4.13;;;8.00;99.90;;;;;;7369758;19;20020;-66
2023/05/17 01:49:22;;;;;;;23.45;4.88;;;8.00;99.90;;;;;;7374153;19;20011;-59
2023/05/17 01:51:59;;;;;;;20.13;4.28;;;8.00;99.90;;;;;;7371597;19;20565;-61
2023/05/17 01:54:32;;;;;;;22.65;5.10;;;8.00;99.90;;;;;;7371142;19;20018;-59
2023/05/17 01:57:03;;;;;;;18.27;5.28;;;7.90;99.90;;;;;;7373536;19;20447;-66
2023/05/17 01:59:32;;;;;;;23.17;4.18;;;7.90;99.90;;;;;;7364043;19;20015;-59
2023/05/17 02:02:06;;;;;;;19.33;4.65;;;7.90;99.90;;;;;;7370418;19;20022;-59
2023/05/17 02:04:32;;;;;;;23.25;4.45;;;7.80;99.90;;;;;;7371149;19;20015;-66
2023/05/17 02:07:02;;;;;;;21.92;5.18;;;7.80;99.90;;;;;;7372905;19;20081;-66
2023/05/17 02:09:29;;;;;;;20.73;5.88;;;7.80;99.90;;;;;;7368016;19;20018;-66
2023/05/17 02:11:56;;;;;;;20.35;4.63;;;7.70;99.90;;;;;;7372716;19;20018;-66
2023/05/17 02:14:23;;;;;;;20.98;4.57;;;7.70;99.90;;;;;;7369647;19;20019;-66
2023/05/17 02:16:49;;;;;;;18.63;4.95;;;7.80;99.90;;;;;;7368747;19;20022;-66
2023/05/17 02:19:15;;;;;;;24.58;4.72;;;7.80;99.90;;;;;;7370113;19;20007;-66
2023/05/17 02:21:41;;;;;;;23.80;4.93;;;7.80;99.90;;;;;;7372718;19;20018;-67
2023/05/17 02:24:08;;;;;;;21.05;4.60;;;7.90;99.90;;;;;;7371124;19;20018;-67
2023/05/17 02:26:34;;;;;;;20.52;5.25;;;7.90;99.90;;;;;;7370651;19;20025;-67
2023/05/17 02:29:02;;;;;;;24.27;3.85;;;7.90;99.90;;;;;;7368430;19;20018;-68
2023/05/17 02:31:30;;;;;;;22.02;4.82;;;7.90;99.90;;;;;;7367650;19;20116;-67
2023/05/17 02:33:56;;;;;;;21.90;4.40;;;7.90;99.90;;;;;;7367162;19;20018;-60
2023/05/17 02:36:22;;;;;;;25.23;5.05;;;7.80;99.90;;;;;;7368700;19;20018;-61
2023/05/17 02:38:49;;;;;;;22.13;5.05;;;7.80;99.90;;;;;;7365628;19;20478;-59
2023/05/17 02:41:15;;;;;;;24.90;4.30;;;7.70;99.90;;;;;;7371488;19;20022;-60
2023/05/17 02:43:41;;;;;;;20.35;4.05;;;7.60;99.90;;;;;;7368003;19;20019;-61
2023/05/17 02:46:08;;;;;;;20.92;4.45;;;7.60;99.90;;;;;;7367603;19;20018;-59
2023/05/17 02:48:34;;;;;;;18.15;4.22;;;7.50;99.90;;;;;;7366850;19;20023;-60
2023/05/17 02:51:01;;;;;;;22.25;5.13;;;7.50;99.90;;;;;;7369516;19;20378;-59
2023/05/17 02:53:27;;;;;;;30.83;4.72;;;7.40;99.90;;;;;;7367478;19;20038;-66
2023/05/17 02:55:56;;;;;;;29.05;4.28;;;7.40;99.90;;;;;;7371191;19;20018;-66
2023/05/17 02:58:24;;;;;;;22.13;4.63;;;7.30;99.90;;;;;;7366403;19;20039;-67
2023/05/17 03:00:53;;;;;;;22.65;4.70;;;7.30;99.90;;;;;;7369364;19;20022;-66
2023/05/17 03:03:19;;;;;;;21.58;4.00;;;7.20;99.90;;;;;;7368525;19;20022;-60
2023/05/17 03:05:46;;;;;;;20.90;4.82;;;7.20;99.90;;;;;;7369457;19;20019;-60
2023/05/17 03:08:12;;;;;;;24.60;5.05;;;7.20;99.90;;;;;;7368040;19;20007;-66
2023/05/17 03:10:39;;;;;;;22.42;4.80;;;7.20;99.90;;;;;;7369529;19;20423;-66
2023/05/17 03:13:06;;;;;;;21.25;4.68;;;7.10;99.90;;;;;;7368113;19;20014;-66
2023/05/17 03:15:37;;;;;;;22.35;4.55;;;7.10;99.90;;;;;;7366041;19;20521;-59
2023/05/17 03:18:03;;;;;;;20.70;4.50;;;7.00;99.90;;;;;;7368552;19;20014;-60
2023/05/17 03:20:30;;;;;;;20.35;4.40;;;7.00;99.90;;;;;;7367758;19;20043;-59
2023/05/17 03:22:56;;;;;;;23.25;5.78;;;7.00;99.90;;;;;;7368393;19;20030;-60
2023/05/17 03:25:23;;;;;;;20.27;4.15;;;7.00;99.90;;;;;;7366530;19;20056;-61
2023/05/17 03:27:49;;;;;;;24.80;4.60;;;6.90;99.90;;;;;;7366925;19;20015;-67
2023/05/17 03:30:16;;;;;;;17.30;3.58;;;6.90;99.90;;;;;;7368195;19;20065;-59
2023/05/17 03:32:44;;;;;;;24.20;4.75;;;7.00;99.90;;;;;;7366345;19;20022;-60
2023/05/17 03:35:10;;;;;;;22.90;5.40;;;7.00;99.90;;;;;;7366242;19;20022;-59
2023/05/17 03:37:38;;;;;;;25.20;4.75;;;7.00;99.90;;;;;;7365390;19;20018;-67
2023/05/17 03:40:06;;;;;;;21.83;4.18;;;7.10;99.90;;;;;;7367363;19;20524;-66
2023/05/17 03:42:32;;;;;;;21.52;4.50;;;7.20;99.90;;;;;;7371229;19;20025;-67
2023/05/17 03:44:59;;;;;;;21.40;4.32;;;7.30;99.90;;;;;;7373990;19;20018;-67
2023/05/17 03:47:26;;;;;;;24.95;5.00;;;7.40;99.90;;;;;;7376206;19;20015;-67
2023/05/17 03:49:52;;;;;;;21.27;4.78;;;7.40;99.90;;;;;;7371378;19;20018;-66
2023/05/17 03:52:19;;;;;;;16.55;4.32;;;7.50;99.90;;;;;;7375173;19;20055;-67
2023/05/17 03:54:45;;;;;;;18.90;4.63;;;7.60;99.90;;;;;;7375318;19;20022;-59
2023/05/17 03:57:11;;;;;;;14.30;3.55;;;7.60;99.90;;;;;;7375352;19;20026;-66
2023/05/17 03:59:37;;;;;;;17.33;3.78;;;7.60;99.90;;;;;;7372190;19;20010;-60
2023/05/17 04:02:05;;;;;;;18.30;3.95;;;7.70;99.90;;;;;;7371768;19;20029;-60
2023/05/17 04:04:32;;;;;;;13.70;3.20;;;7.70;99.90;;;;;;7371261;19;20377;-59
2023/05/17 04:06:58;;;;;;;20.63;4.70;;;7.70;99.90;;;;;;7372675;19;20029;-67
2023/05/17 04:09:33;;;;;;;17.35;3.92;;;7.70;99.90;;;;;;7373805;19;20542;-59
2023/05/17 04:12:00;;;;;;;14.20;3.85;;;7.70;99.90;;;;;;7376577;19;20018;-60
2023/05/17 04:14:26;;;;;;;21.52;4.25;;;7.70;99.90;;;;;;7373086;19;20018;-60
2023/05/17 04:16:52;;;;;;;17.23;4.05;;;7.70;99.90;;;;;;7375141;19;20014;-66
2023/05/17 04:19:18;;;;;;;16.58;3.83;;;7.70;99.90;;;;;;7366689;19;20015;-66
2023/05/17 04:21:45;;;;;;;13.52;3.63;;;7.70;99.90;;;;;;7375077;19;20015;-67
2023/05/17 04:24:11;;;;;;;13.27;3.55;;;7.60;99.90;;;;;;7369719;19;20018;-67
2023/05/17 04:26:38;;;;;;;17.50;3.75;;;7.70;99.90;;;;;;7375630;19;20022;-67
2023/05/17 04:29:05;;;;;;;13.65;3.30;;;7.70;99.90;;;;;;7375339;19;20403;-67
2023/05/17 04:31:36;;;;;;;17.63;4.45;;;7.80;99.90;;;;;;7373300;19;20088;-60
2023/05/17 04:34:02;;;;;;;17.83;5.05;;;7.80;99.90;;;;;;7370334;19;20019;-60
2023/05/17 04:36:28;;;;;;;20.65;3.75;;;7.80;99.90;;;;;;7372970;19;20015;-59
2023/05/17 04:38:55;;;;;;;16.17;3.03;;;7.80;99.90;;;;;;7371416;19;20384;-66
2023/05/17 04:41:25;;;;;;;15.65;3.30;;;7.90;99.90;;;;;;7371746;19;20787;-60
2023/05/17 04:43:51;;;;;;;14.82;3.17;;;7.90;99.90;;;;;;7369557;19;20493;-60
2023/05/17 04:46:25;;;;;;;20.23;3.45;;;8.00;99.90;;;;;;7368766;19;20019;-61
2023/05/17 04:48:52;;;;;;;16.55;3.65;;;8.10;99.90;;;;;;7370329;19;20023;-60
2023/05/17 04:51:18;;;;;;;17.90;3.40;;;8.10;99.90;;;;;;7373351;19;20022;-60
2023/05/17 04:53:44;;;;;;;13.48;3.13;;;8.20;99.90;;;;;;7367022;19;20018;-60
2023/05/17 04:56:15;;;;;;;13.32;3.75;;;8.30;99.90;;;;;;7373070;19;20085;-60
2023/05/17 04:58:42;;;;;;;15.95;3.10;;;8.40;99.90;;;;;;7368324;19;20018;-67
2023/05/17 05:01:08;;;;;;;8.40;2.58;;;8.40;99.90;;;;;;7373924;19;20383;-66
2023/05/17 05:03:35;;;;;;;13.05;2.72;;;8.50;99.90;;;;;;7370439;19;20022;-66
2023/05/17 05:06:03;;;;;;;16.35;3.22;;;8.70;99.90;;;;;;7367296;19;20010;-60
2023/05/17 05:08:31;;;;;;;18.70;3.03;;;9.00;99.90;;;;;;7365662;19;20347;-60
2023/05/17 05:10:59;;;;;;;15.77;4.85;;;9.20;99.90;;;;;;7361756;19;20014;-62
2023/05/17 05:13:25;;;;;;;11.35;2.47;;;9.30;99.90;;;;;;7367001;19;20098;-59
2023/05/17 05:15:53;;;;;;;11.88;2.78;;;9.50;99.90;;;;;;7367658;19;20820;-60
2023/05/17 05:18:19;;;;;;;16.90;5.20;;;9.60;99.90;;;;;;7369133;19;20382;-61
2023/05/17 05:20:49;;;;;;;17.98;8.10;;;9.90;99.90;;;;;;7372217;19;20620;-60
2023/05/17 05:23:17;;;;;;;10.13;2.25;;;10.20;99.90;;;;;;7370504;19;20618;-61
2023/05/17 05:25:46;;;;;;;13.40;4.10;;;10.50;99.90;;;;;;7367954;19;20654;-60
2023/05/17 05:28:12;;;;;;;19.33;7.78;;;10.80;99.90;;;;;;7370023;19;20029;-61
2023/05/17 05:30:40;;;;;;;12.43;2.42;;;11.10;99.90;;;;;;7365086;19;20105;-61
2023/05/17 05:33:07;;;;;;;19.98;7.80;;;11.40;99.90;;;;;;7371028;19;20478;-61
2023/05/17 05:35:34;;;;;;;10.32;1.60;;;11.50;99.90;;;;;;7369710;19;20101;-67
2023/05/17 05:38:00;;;;;;;12.13;3.90;;;11.40;99.90;;;;;;7367131;19;20129;-61
2023/05/17 05:40:27;;;;;;;7.47;1.80;;;11.30;99.90;;;;;;7368283;19;20023;-61
2023/05/17 05:42:53;;;;;;;21.92;11.93;;;10.90;99.90;;;;;;7365551;19;20042;-61
2023/05/17 05:45:24;;;;;;;13.52;6.18;;;10.90;99.90;;;;;;7370896;19;20029;-60
2023/05/17 05:47:52;;;;;;;20.40;8.13;;;10.60;99.90;;;;;;7373320;19;20088;-60
2023/05/17 05:50:19;;;;;;;12.52;3.17;;;10.60;99.90;;;;;;7368686;19;20022;-61
2023/05/17 05:52:46;;;;;;;11.50;2.78;;;10.40;99.90;;;;;;7371471;19;20101;-61
2023/05/17 05:55:13;;;;;;;14.05;3.85;;;10.20;99.90;;;;;;7367129;19;20626;-60
2023/05/17 05:57:40;;;;;;;8.77;2.25;;;10.20;99.90;;;;;;7367519;19;20017;-60
2023/05/17 06:00:06;;;;;;;10.05;2.75;;;10.30;99.90;;;;;;7368919;19;20030;-62
2023/05/17 06:02:39;;;;;;;18.80;8.43;;;10.60;99.90;;;;;;7368837;19;20490;-62
2023/05/17 06:05:05;;;;;;;11.50;4.55;;;11.20;99.90;;;;;;7370222;19;20054;-61
2023/05/17 06:07:32;;;;;;;9.57;3.38;;;11.50;99.90;;;;;;7365068;19;20015;-60
2023/05/17 06:09:58;;;;;;;10.88;3.97;;;11.40;99.90;;;;;;7364636;19;20014;-60
2023/05/17 06:12:25;;;;;;;12.57;3.78;;;11.40;99.90;;;;;;7369759;19;20058;-60
2023/05/17 06:14:52;;;;;;;7.80;2.33;;;11.40;99.90;;;;;;7368477;19;20716;-60
2023/05/17 06:17:20;;;;;;;7.80;1.98;;;11.30;99.90;;;;;;7371256;19;20370;-60
2023/05/17 06:19:48;;;;;;;7.13;1.60;;;11.30;99.90;;;;;;7365486;19;20588;-60
2023/05/17 06:22:14;;;;;;;10.65;2.20;;;11.30;99.90;;;;;;7365205;19;20056;-61
2023/05/17 06:24:44;;;;;;;12.20;2.70;;;11.30;99.90;;;;;;7366541;19;20015;-60
2023/05/17 06:27:11;;;;;;;13.00;1.80;;;11.20;99.90;;;;;;7374008;19;20026;-67
2023/05/17 06:29:37;;;;;;;10.40;2.30;;;11.20;99.90;;;;;;7368357;19;20676;-67
2023/05/17 06:32:04;;;;;;;12.65;2.30;;;11.10;99.90;;;;;;7368360;19;20018;-67
2023/05/17 06:34:30;;;;;;;9.25;2.08;;;10.90;99.90;;;;;;7370121;19;20010;-67
2023/05/17 06:36:57;;;;;;;10.43;1.83;;;11.00;99.90;;;;;;7373303;19;20026;-67
2023/05/17 06:39:24;;;;;;;10.43;1.90;;;11.00;99.90;;;;;;7369822;19;20015;-65
2023/05/17 06:41:50;;;;;;;14.57;6.15;;;11.00;99.90;;;;;;7369148;19;20619;-67
2023/05/17 06:44:16;;;;;;;19.10;9.10;;;11.00;99.90;;;;;;7371068;19;20014;-66
2023/05/17 06:46:43;;;;;;;17.60;8.13;;;11.10;99.90;;;;;;7370735;19;20358;-66
2023/05/17 06:49:09;;;;;;;13.60;2.60;;;11.20;99.90;;;;;;7374011;19;20097;-67
2023/05/17 06:51:35;;;;;;;16.50;2.33;;;11.10;99.90;;;;;;7369627;19;20015;-66
2023/05/17 06:54:01;;;;;;;8.60;1.48;;;11.10;99.90;;;;;;7368580;19;20014;-67
2023/05/17 06:56:27;;;;;;;12.27;2.10;;;11.00;99.90;;;;;;7370915;19;20026;-67
2023/05/17 06:58:54;;;;;;;12.52;2.63;;;11.00;99.90;;;;;;7368738;19;20479;-66
2023/05/17 07:01:21;;;;;;;12.38;2.17;;;11.10;99.90;;;;;;7372448;19;20015;-66
2023/05/17 07:03:47;;;;;;;10.38;2.05;;;11.20;99.90;;;;;;7369511;19;20018;-66
2023/05/17 07:06:13;;;;;;;13.30;2.70;;;11.40;99.90;;;;;;7370523;19;20053;-67
2023/05/17 07:08:40;;;;;;;9.55;2.05;;;11.90;99.90;;;;;;7370068;19;20522;-67
2023/05/17 07:11:06;;;;;;;12.82;3.55;;;12.50;99.90;;;;;;7371709;19;20481;-59
2023/05/17 07:13:33;;;;;;;11.90;3.63;;;12.60;99.90;;;;;;7368126;19;20011;-60
2023/05/17 07:15:59;;;;;;;12.20;2.58;;;13.00;99.90;;;;;;7371293;19;20018;-61
2023/05/17 07:18:26;;;;;;;11.68;2.45;;;13.60;99.90;;;;;;7375669;19;20053;-60
2023/05/17 07:20:52;;;;;;;10.15;2.20;;;13.90;76.70;;;;;;7374702;19;20486;-61
2023/05/17 07:23:18;;;;;;;10.75;2.22;;;13.50;93.30;;;;;;7380440;19;20101;-63
2023/05/17 07:25:45;;;;;;;29.40;3.53;;;13.70;94.80;;;;;;7374897;19;20516;-60
2023/05/17 07:28:11;;;;;;;11.30;2.30;;;13.50;95.80;;;;;;7377079;19;20341;-61
2023/05/17 07:30:37;;;;;;;9.45;2.55;;;12.80;96.00;;;;;;7376363;19;20018;-67
2023/05/17 07:33:03;;;;;;;9.02;2.40;;;12.30;97.10;;;;;;7374548;19;20014;-67
2023/05/17 07:35:30;;;;;;;9.32;2.60;;;12.10;96.70;;;;;;7378138;19;20478;-60
2023/05/17 07:37:56;;;;;;;10.40;2.65;;;12.00;99.90;;;;;;7374257;19;20026;-68
2023/05/17 07:40:22;;;;;;;8.93;2.60;;;11.90;99.90;;;;;;7377874;19;20658;-67
2023/05/17 07:42:49;;;;;;;13.10;2.63;;;11.90;99.90;;;;;;7378022;19;20014;-67
2023/05/17 07:45:15;;;;;;;13.90;3.85;;;11.80;96.60;;;;;;7377423;19;20011;-59
2023/05/17 07:47:41;;;;;;;9.23;2.38;;;12.10;95.50;;;;;;7375589;19;20615;-67
2023/05/17 07:50:08;;;;;;;13.65;3.30;;;12.70;92.90;;;;;;7376999;19;20082;-67
2023/05/17 07:52:34;;;;;;;13.55;3.00;;;12.90;93.40;;;;;;7376430;19;20485;-68
2023/05/17 07:55:00;;;;;;;9.80;2.67;;;13.00;77.60;;;;;;7374116;19;20045;-67
2023/05/17 07:57:26;;;;;;;11.15;3.30;;;13.70;75.50;;;;;;7377368;19;20021;-59
2023/05/17 07:59:53;;;;;;;11.15;3.28;;;14.10;70.70;;;;;;7379278;19;20010;-68
2023/05/17 08:02:19;;;;;;;9.27;2.60;;;14.80;70.80;;;;;;7376069;19;20080;-68
2023/05/17 08:04:45;;;;;;;11.85;3.10;;;15.00;66.40;;;;;;7376733;19;20082;-68
2023/05/17 08:07:11;;;;;;;11.68;3.00;;;14.80;66.10;;;;;;7378427;19;20023;-68
2023/05/17 08:09:39;;;;;;;11.95;3.55;;;14.40;61.90;;;;;;7377978;19;20058;-68
2023/05/17 08:12:05;;;;;;;11.07;4.47;;;14.60;63.80;;;;;;7379667;19;20517;-67
2023/05/17 08:14:32;;;;;;;15.90;2.40;;;15.10;63.80;;;;;;7377732;19;20011;-69
2023/05/17 08:16:59;;;;;;;10.85;2.42;;;14.90;60.00;;;;;;7376580;19;20014;-68
2023/05/17 08:19:25;;;;;;;14.13;2.83;;;15.30;61.60;;;;;;7375062;19;20015;-68
2023/05/17 08:21:51;;;;;;;11.73;2.63;;;15.70;60.00;;;;;;7375144;19;20074;-69
2023/05/17 08:24:17;;;;;;;13.75;4.65;;;15.40;58.30;;;;;;7375568;19;20069;-69
2023/05/17 08:26:44;;;;;;;11.85;2.90;;;15.30;60.80;;;;;;7375001;19;20018;-69
2023/05/17 08:29:10;;;;;;;11.38;3.03;;;15.00;59.30;;;;;;7375060;19;20422;-61
2023/05/17 08:31:36;;;;;;;13.32;2.75;;;14.70;60.00;;;;;;7375737;19;20396;-61
2023/05/17 08:34:03;;;;;;;13.38;2.95;;;14.60;60.60;;;;;;7375046;19;20430;-60
2023/05/17 08:36:29;;;;;;;12.60;2.35;;;14.30;61.70;;;;;;7377452;19;20010;-61
2023/05/17 08:38:55;;;;;;;10.20;3.42;;;14.00;63.80;;;;;;7371470;19;20035;-61
2023/05/17 08:41:22;;;;;;;11.73;2.53;;;14.00;64.70;;;;;;7377171;19;20021;-69
2023/05/17 08:43:49;;;;;;;10.32;2.20;;;14.00;65.40;;;;;;7375292;19;20011;-68
2023/05/17 08:46:20;;;;;;;14.00;4.10;;;13.80;65.80;;;;;;7377072;19;20018;-68
2023/05/17 08:48:50;;;;;;;12.90;3.05;;;13.80;67.00;;;;;;7374492;19;20468;-68
2023/05/17 08:51:18;;;;;;;11.18;3.05;;;13.50;67.10;;;;;;7374144;19;20371;-68
2023/05/17 08:53:46;;;;;;;14.32;3.65;;;13.40;69.80;;;;;;7376089;19;20469;-68
2023/05/17 08:56:15;;;;;;;15.10;2.83;;;13.90;74.90;;;;;;7377229;19;20476;-68
2023/05/17 08:58:43;;;;;;;15.45;2.85;;;14.00;69.70;;;;;;7375046;19;20082;-60
2023/05/17 09:01:11;;;;;;;13.45;3.10;;;14.20;69.90;;;;;;7377243;19;20033;-61
2023/05/17 09:03:41;;;;;;;9.70;2.85;;;14.00;67.90;;;;;;7373729;19;20019;-61
2023/05/17 09:06:09;;;;;;;12.43;4.45;;;13.80;65.10;;;;;;7372735;19;20014;-61
2023/05/17 09:08:36;;;;;;;13.93;2.70;;;13.90;64.50;;;;;;7372885;19;20022;-61
2023/05/17 09:11:02;;;;;;;12.00;2.78;;;13.90;63.90;;;;;;7375483;19;20500;-61
2023/05/17 09:13:29;;;;;;;10.82;2.53;;;14.00;63.10;;;;;;7373563;19;20014;-61
2023/05/17 09:15:56;;;;;;;12.30;2.45;;;14.20;61.10;;;;;;7372366;19;20561;-61
2023/05/17 09:18:31;;;;;;;11.80;2.95;;;14.60;63.70;;;;;;7372373;19;20042;-61
2023/05/17 09:21:03;;;;;;;7.57;2.58;;;14.70;60.30;;;;;;7376804;19;20021;-61
2023/05/17 09:23:34;;;;;;;14.48;2.70;;;14.70;59.40;;;;;;7373315;19;20342;-61
2023/05/17 09:26:07;;;;;;;9.60;2.25;;;14.90;59.90;;;;;;7375193;19;20022;-61
2023/05/17 09:28:41;;;;;;;11.15;3.05;;;14.80;59.30;;;;;;7375399;19;20018;-61
2023/05/17 09:31:08;;;;;;;9.10;2.30;;;15.20;59.80;;;;;;7375443;19;20060;-61
2023/05/17 09:33:45;;;;;;;12.93;4.03;;;15.50;59.50;;;;;;7375042;19;20965;-60
2023/05/17 09:36:20;;;;;;;15.98;2.75;;;15.40;58.70;;;;;;7373710;19;20022;-60
2023/05/17 09:38:59;;;;;;;15.02;3.38;;;15.30;59.10;;;;;;7371684;19;20025;-61
2023/05/17 09:41:26;;;;;;;12.32;2.70;;;15.10;58.70;;;;;;7376391;19;20020;-60
2023/05/17 09:43:52;;;;;;;15.68;2.80;;;15.20;60.10;;;;;;7375279;19;20018;-60
2023/05/17 09:46:19;;;;;;;10.55;3.03;;;15.50;60.20;;;;;;7375221;19;20011;-61
2023/05/17 09:48:52;;;;;;;11.05;2.78;;;16.30;60.00;;;;;;7368634;19;20026;-60
2023/05/17 09:51:19;;;;;;;10.05;2.67;;;17.60;59.50;;;;;;7375665;19;20626;-61
2023/05/17 09:53:45;;;;;;;11.27;2.60;;;17.80;58.10;;;;;;7370974;19;20483;-62
2023/05/17 09:56:12;;;;;;;13.88;3.15;;;18.40;56.20;;;;;;7376503;19;20078;-61
2023/05/17 09:58:38;;;;;;;11.65;2.78;;;18.60;56.60;;;;;;7371697;19;20011;-62
2023/05/17 10:01:06;;;;;;;13.80;3.70;;;18.70;55.30;;;;;;7373842;19;20103;-62
2023/05/17 10:03:34;;;;;;;11.35;2.53;;;18.80;55.60;;;;;;7374013;19;20054;-61
2023/05/17 10:06:04;;;;;;;9.00;2.38;;;18.70;54.80;;;;;;7374225;19;20449;-62
2023/05/17 10:08:32;;;;;;;11.98;2.67;;;19.40;54.60;;;;;;7373441;19;20048;-62
2023/05/17 10:11:08;;;;;;;11.27;2.90;;;19.00;53.00;;;;;;7371430;19;20014;-62
2023/05/17 10:13:48;;;;;;;9.38;2.70;;;18.10;51.90;;;;;;7370163;19;20036;-61
2023/05/17 10:16:17;;;;;;;11.75;2.65;;;17.50;52.60;;;;;;7373359;19;20588;-61
2023/05/17 10:18:43;;;;;;;7.65;2.03;;;16.90;53.90;;;;;;7370753;19;20127;-61
2023/05/17 10:21:13;;;;;;;7.05;2.30;;;16.40;54.40;;;;;;7371771;19;20030;-61
2023/05/17 10:23:42;;;;;;;7.63;1.95;;;16.20;54.80;;;;;;7368661;19;20647;-61
2023/05/17 10:26:09;;;;;;;5.90;1.77;;;16.20;52.90;;;;;;7372895;19;20032;-61
2023/05/17 10:28:36;;;;;;;10.70;2.13;;;16.30;53.20;;;;;;7371651;19;20481;-61
2023/05/17 10:31:04;;;;;;;8.38;1.90;;;17.00;53.40;;;;;;7372780;19;20372;-60
2023/05/17 10:33:33;;;;;;;8.98;2.58;;;17.10;52.60;;;;;;7374369;19;20051;-62
2023/05/17 10:36:01;;;;;;;10.77;2.50;;;16.80;51.80;;;;;;7372143;19;20019;-61
2023/05/17 10:38:28;;;;;;;10.05;2.30;;;16.70;54.20;;;;;;7370796;19;20029;-61
2023/05/17 10:40:55;;;;;;;11.20;2.17;;;16.80;53.30;;;;;;7372224;19;20428;-61
2023/05/17 10:43:23;;;;;;;9.88;2.50;;;16.60;52.60;;;;;;7372433;19;20022;-61
2023/05/17 10:45:50;;;;;;;6.78;1.90;;;17.10;52.70;;;;;;7371776;19;20107;-61
2023/05/17 10:48:17;;;;;;;9.88;2.20;;;17.70;52.40;;;;;;7373322;19;20025;-61
2023/05/17 10:50:47;;;;;;;10.93;2.20;;;18.20;51.20;;;;;;7369961;19;20453;-61
2023/05/17 10:53:13;;;;;;;14.13;2.30;;;17.90;51.10;;;;;;7373319;19;20029;-61
2023/05/17 10:55:42;;;;;;;12.55;2.78;;;17.50;51.30;;;;;;7370633;19;20026;-61
2023/05/17 10:58:16;;;;;;;11.55;2.13;;;17.40;51.40;;;;;;7371611;19;20018;-60
2023/05/17 11:00:54;;;;;;;9.77;2.20;;;18.30;52.00;;;;;;7372382;19;20018;-61
2023/05/17 11:03:33;;;;;;;10.00;2.17;;;18.80;49.00;;;;;;7372300;19;20014;-61
2023/05/17 11:06:17;;;;;;;6.90;2.05;;;18.40;49.80;;;;;;7371590;19;20568;-60
2023/05/17 11:08:46;;;;;;;9.40;2.00;;;17.80;50.00;;;;;;7372716;19;20026;-61
2023/05/17 11:11:17;;;;;;;6.32;1.80;;;17.70;50.30;;;;;;7370797;19;20096;-62
2023/05/17 11:13:56;;;;;;;6.60;2.30;;;17.10;48.90;;;;;;7369720;19;20019;-60
2023/05/17 11:16:33;;;;;;;7.25;1.55;;;17.00;50.10;;;;;;7368173;19;20035;-61
2023/05/17 11:19:10;;;;;;;9.18;2.40;;;18.00;50.10;;;;;;7369105;19;20557;-61
2023/05/17 11:21:47;;;;;;;7.18;1.70;;;18.00;49.50;;;;;;7371621;19;20051;-61
2023/05/17 11:24:23;;;;;;;11.02;2.13;;;18.40;47.20;;;;;;7369833;19;20026;-62
2023/05/17 11:26:49;;;;;;;5.93;1.88;;;18.40;48.00;;;;;;7372060;19;20518;-61
2023/05/17 11:29:17;;;;;;;7.63;1.73;;;18.40;47.10;;;;;;7370448;19;20014;-62
2023/05/17 11:31:50;;;;;;;10.15;1.92;;;18.50;48.50;;;;;;7370745;19;20105;-61
2023/05/17 11:34:17;;;;;;;7.95;2.47;;;18.30;48.90;;;;;;7369446;19;20015;-61
2023/05/17 11:36:52;;;;;;;10.48;2.10;;;18.40;48.30;;;;;;7367803;19;20382;-62
2023/05/17 11:39:20;;;;;;;8.07;2.28;;;17.90;47.40;;;;;;7369898;19;20018;-61
2023/05/17 11:41:52;;;;;;;7.30;1.80;;;18.10;48.70;;;;;;7370326;19;20113;-61
2023/05/17 11:44:31;;;;;;;9.23;1.83;;;19.00;48.80;;;;;;7372759;19;20569;-70
2023/05/17 11:47:02;;;;;;;9.38;1.98;;;19.00;47.10;;;;;;7367230;19;20524;-70
2023/05/17 11:49:30;;;;;;;7.85;2.28;;;18.20;45.40;;;;;;7372372;19;20326;-69
2023/05/17 11:51:56;;;;;;;7.57;1.77;;;18.70;47.60;;;;;;7367170;19;20018;-69
2023/05/17 11:54:24;;;;;;;8.23;2.17;;;19.60;46.90;;;;;;7372577;19;20034;-70
2023/05/17 11:56:54;;;;;;;7.22;2.10;;;19.50;45.70;;;;;;7366311;19;20450;-70
2023/05/17 11:59:21;;;;;;;9.20;2.10;;;19.90;46.60;;;;;;7365842;19;20465;-70
2023/05/17 12:01:49;;;;;;;11.05;1.92;;;20.40;46.30;;;;;;7365917;19;20054;-70
2023/05/17 12:04:24;;;;;;;7.15;1.92;;;20.40;45.80;;;;;;7377371;19;20040;-70
2023/05/17 12:06:54;;;;;;;7.47;1.77;;;20.50;45.70;;;;;;7376841;19;20609;-70
2023/05/17 12:09:25;;;;;;;7.60;1.73;;;20.70;44.40;;;;;;7376525;19;20411;-70
2023/05/17 12:11:52;;;;;;;8.50;2.28;;;20.40;44.70;;;;;;7375532;19;20110;-70
2023/05/17 12:14:19;;;;;;;9.32;2.25;;;20.20;44.30;;;;;;7376763;19;20032;-62
2023/05/17 12:16:55;;;;;;;7.40;2.42;;;20.50;43.90;;;;;;7375965;19;20402;-61
2023/05/17 12:19:23;;;;;;;9.02;2.03;;;20.40;44.60;;;;;;7375004;19;20408;-61
2023/05/17 12:21:50;;;;;;;8.13;1.63;;;20.00;44.70;;;;;;7379334;19;20622;-69
2023/05/17 12:24:17;;;;;;;7.43;1.80;;;19.50;46.50;;;;;;7376604;19;20014;-69
2023/05/17 12:26:45;;;;;;;8.07;2.25;;;19.40;46.00;;;;;;7377491;19;20019;-70
2023/05/17 12:29:12;;;;;;;10.52;1.90;;;19.90;46.00;;;;;;7377611;19;20307;-61
2023/05/17 12:31:47;;;;;;;7.55;2.03;;;19.80;45.00;;;;;;7375797;19;20044;-62
2023/05/17 12:34:15;;;;;;;9.15;1.83;;;19.50;44.20;;;;;;7374203;19;20015;-61
2023/05/17 12:36:42;;;;;;;7.80;2.08;;;19.90;45.10;;;;;;7374919;19;20018;-70
2023/05/17 12:39:09;;;;;;;9.48;1.92;;;19.30;46.20;;;;;;7375454;19;20021;-70
2023/05/17 12:41:37;;;;;;;7.40;1.80;;;19.40;46.70;;;;;;7375150;19;20014;-70
2023/05/17 12:44:06;;;;;;;9.55;2.45;;;19.40;46.00;;;;;;7374832;19;20013;-61
2023/05/17 12:46:33;;;;;;;7.35;2.15;;;20.00;46.20;;;;;;7370698;19;20021;-70
2023/05/17 12:49:07;;;;;;;8.68;2.42;;;20.20;45.90;;;;;;7375184;19;20501;-69